createdAt,value
2018-12-20T00:00:45.587Z,4.18
2018-12-20T00:03:32.819Z,4.91
2018-12-20T00:06:24.236Z,4.43
2018-12-20T00:12:19.613Z,4.31
2018-12-20T00:18:31.563Z,4.28
2018-12-20T00:27:40.919Z,4.72
2018-12-20T00:30:31.524Z,5.40
2018-12-20T00:33:20.381Z,4.84
2018-12-20T00:36:15.991Z,4.70
2018-12-20T00:39:03.814Z,4.63
2018-12-20T00:41:53.366Z,4.59
2018-12-20T00:47:48.542Z,4.52
2018-12-20T00:50:36.376Z,4.51
2018-12-20T00:53:26.684Z,4.50
2018-12-20T00:56:13.965Z,4.51
2018-12-20T00:59:18.592Z,4.49
2018-12-20T01:02:08.092Z,5.27
2018-12-20T01:04:58.583Z,4.76
2018-12-20T01:07:54.630Z,4.67
2018-12-20T01:10:43.610Z,4.64
2018-12-20T01:13:31.230Z,4.63
2018-12-20T01:16:20.238Z,5.35
2018-12-20T01:19:09.304Z,4.87
2018-12-20T01:21:56.692Z,4.78
2018-12-20T01:24:44.264Z,4.73
2018-12-20T01:27:31.681Z,5.43
2018-12-20T01:30:19.334Z,5.67
2018-12-20T01:33:06.918Z,5.08
2018-12-20T01:35:55.207Z,5.70
2018-12-20T01:41:49.727Z,5.00
2018-12-20T01:47:47.568Z,5.67
2018-12-20T01:50:35.526Z,5.12
2018-12-20T01:53:30.636Z,5.76
2018-12-20T01:56:18.864Z,5.20
2018-12-20T02:05:20.509Z,4.91
2018-12-20T02:08:16.295Z,4.85
2018-12-20T02:11:04.399Z,4.81
2018-12-20T02:13:52.838Z,4.81
2018-12-20T02:16:41.433Z,4.78
2018-12-20T02:19:29.256Z,4.77
2018-12-20T02:22:18.145Z,4.75
2018-12-20T02:25:05.340Z,4.73
2018-12-20T02:27:53.764Z,4.73
2018-12-20T02:30:42.050Z,4.72
2018-12-20T02:33:30.073Z,5.45
2018-12-20T02:39:40.195Z,4.82
2018-12-20T02:42:27.798Z,4.75
2018-12-20T02:45:15.107Z,4.72
2018-12-20T02:48:05.851Z,4.67
2018-12-20T02:50:53.027Z,4.63
2018-12-20T02:59:53.375Z,5.33
2018-12-20T03:02:41.076Z,4.82
2018-12-20T03:05:28.427Z,4.72
2018-12-20T03:08:32.979Z,4.67
2018-12-20T03:11:20.855Z,4.61
2018-12-20T03:14:17.778Z,4.57
2018-12-20T03:17:05.668Z,4.53
2018-12-20T03:19:52.824Z,4.53
2018-12-20T03:22:40.424Z,4.52
2018-12-20T03:25:31.913Z,4.51
2018-12-20T03:28:23.081Z,4.50
2018-12-20T03:31:10.575Z,4.47
2018-12-20T03:33:58.309Z,4.45
2018-12-20T03:36:46.128Z,4.41
2018-12-20T03:39:34.865Z,4.35
2018-12-20T03:42:23.010Z,4.31
2018-12-20T03:45:13.272Z,5.01
2018-12-20T03:48:00.652Z,4.45
2018-12-20T03:50:48.449Z,4.31
2018-12-20T03:53:38.140Z,4.24
2018-12-20T03:56:25.696Z,4.18
2018-12-20T03:59:17.894Z,4.13
2018-12-20T04:02:04.925Z,4.10
2018-12-20T04:04:52.641Z,4.07
2018-12-20T04:07:40.136Z,4.04
2018-12-20T04:10:27.356Z,4.03
2018-12-20T04:13:15.219Z,4.02
2018-12-20T04:16:02.756Z,4.02
2018-12-20T04:18:50.488Z,4.03
2018-12-20T04:21:41.021Z,4.77
2018-12-20T04:24:28.459Z,4.27
2018-12-20T04:30:23.395Z,4.09
2018-12-20T04:33:10.910Z,4.07
2018-12-20T04:35:58.604Z,4.02
2018-12-20T04:41:52.291Z,3.96
2018-12-20T04:44:40.518Z,3.94
2018-12-20T04:47:28.907Z,3.90
2018-12-20T04:50:15.968Z,3.87
2018-12-20T04:53:02.874Z,3.85
2018-12-20T04:55:50.094Z,3.83
2018-12-20T04:58:37.206Z,3.82
2018-12-20T05:01:25.031Z,3.80
2018-12-20T05:04:12.861Z,3.78
2018-12-20T05:07:00.339Z,3.76
2018-12-20T05:09:47.768Z,4.48
2018-12-20T05:12:35.022Z,4.00
2018-12-20T05:15:22.783Z,3.91
2018-12-20T05:18:10.309Z,4.61
2018-12-20T05:20:58.781Z,4.05
2018-12-20T05:23:46.724Z,3.94
2018-12-20T05:26:34.499Z,3.87
2018-12-20T05:29:24.405Z,3.83
2018-12-20T05:32:11.778Z,3.80
2018-12-20T05:34:59.298Z,4.54
2018-12-20T05:37:48.620Z,4.04
2018-12-20T05:43:42.994Z,3.88
2018-12-20T05:46:30.305Z,3.85
2018-12-20T05:49:17.420Z,3.83
2018-12-20T05:52:05.156Z,3.80
2018-12-20T05:54:52.462Z,3.77
2018-12-20T05:57:39.896Z,4.48
2018-12-20T06:00:27.321Z,3.99
2018-12-20T06:03:14.527Z,3.89
2018-12-20T06:06:02.604Z,3.83
2018-12-20T06:08:49.838Z,3.78
2018-12-20T06:11:39.893Z,3.75
2018-12-20T06:14:27.872Z,3.73
2018-12-20T06:17:15.279Z,3.70
2018-12-20T06:20:03.237Z,4.43
2018-12-20T06:22:51.394Z,3.97
2018-12-20T06:25:38.614Z,3.91
2018-12-20T06:28:27.027Z,3.88
2018-12-20T06:31:14.365Z,3.88
2018-12-20T06:34:01.434Z,3.86
2018-12-20T06:36:48.549Z,3.87
2018-12-20T06:39:35.699Z,3.88
2018-12-20T06:42:23.226Z,3.89
2018-12-20T06:45:10.508Z,3.92
2018-12-20T06:47:57.885Z,3.93
2018-12-20T06:50:45.264Z,3.95
2018-12-20T06:53:32.924Z,3.96
2018-12-20T06:56:20.619Z,3.96
2018-12-20T06:59:07.729Z,3.98
2018-12-20T07:01:55.131Z,3.97
2018-12-20T07:04:42.322Z,3.99
2018-12-20T07:07:30.142Z,4.00
2018-12-20T07:10:17.127Z,4.00
2018-12-20T07:13:05.445Z,4.01
2018-12-20T07:15:52.481Z,3.98
2018-12-20T07:18:39.847Z,3.97
2018-12-20T07:21:29.860Z,3.96
2018-12-20T07:24:17.144Z,3.96
2018-12-20T07:27:04.651Z,3.96
2018-12-20T07:29:52.202Z,3.98
2018-12-20T07:32:39.318Z,3.99
2018-12-20T07:35:27.275Z,4.01
2018-12-20T07:38:22.751Z,4.02
2018-12-20T07:41:10.387Z,4.77
2018-12-20T07:43:59.729Z,5.02
2018-12-20T07:46:47.473Z,4.51
2018-12-20T07:49:37.026Z,4.42
2018-12-20T07:52:24.382Z,4.39
2018-12-20T07:55:11.453Z,4.38
2018-12-20T07:57:59.229Z,4.38
2018-12-20T08:00:47.599Z,4.40
2018-12-20T08:03:36.144Z,4.42
2018-12-20T08:06:23.609Z,4.46
2018-12-20T08:09:10.890Z,4.47
2018-12-20T08:12:02.920Z,4.52
2018-12-20T08:17:56.899Z,4.59
2018-12-20T08:20:45.302Z,4.65
2018-12-20T08:23:41.039Z,4.69
2018-12-20T08:26:28.608Z,4.76
2018-12-20T08:29:17.445Z,4.83
2018-12-20T08:32:07.488Z,4.88
2018-12-20T08:34:54.913Z,4.95
2018-12-20T08:37:42.403Z,5.75
2018-12-20T08:40:29.463Z,5.34
2018-12-20T08:43:16.985Z,5.32
2018-12-20T08:46:05.050Z,5.34
2018-12-20T08:48:52.542Z,5.38
2018-12-20T08:51:39.916Z,5.40
2018-12-20T08:54:27.322Z,6.24
2018-12-20T08:57:14.744Z,5.79
2018-12-20T09:00:03.186Z,5.73
2018-12-20T09:02:50.682Z,5.76
2018-12-20T09:05:42.080Z,5.76
2018-12-20T09:08:30.719Z,5.80
2018-12-20T09:11:28.158Z,5.82
2018-12-20T09:14:16.338Z,5.81
2018-12-20T09:17:10.817Z,5.83
2018-12-20T09:19:59.802Z,5.84
2018-12-20T09:22:45.433Z,5.83
2018-12-20T09:25:33.595Z,5.86
2018-12-20T09:28:20.650Z,5.89
2018-12-20T09:31:13.170Z,5.93
2018-12-20T09:34:03.199Z,6.00
2018-12-20T09:36:50.778Z,6.06
2018-12-20T09:39:38.233Z,6.14
2018-12-20T09:42:26.127Z,7.06
2018-12-20T09:45:17.762Z,6.65
2018-12-20T09:48:08.557Z,6.86
2018-12-20T09:50:56.384Z,7.20
2018-12-20T09:53:51.869Z,7.56
2018-12-20T09:56:41.595Z,7.88
2018-12-20T09:59:29.694Z,8.05
2018-12-20T10:02:18.265Z,8.08
2018-12-20T10:05:13.980Z,9.01
2018-12-20T10:08:01.445Z,8.41
2018-12-20T10:10:55.529Z,9.40
2018-12-20T10:16:49.462Z,8.70
2018-12-20T10:19:36.924Z,8.76
2018-12-20T10:22:24.097Z,9.76
2018-12-20T10:25:12.732Z,9.16
2018-12-20T10:28:00.252Z,9.04
2018-12-20T10:30:47.650Z,8.96
2018-12-20T10:33:39.748Z,9.00
2018-12-20T10:36:27.631Z,9.08
2018-12-20T10:39:15.472Z,9.03
2018-12-20T10:42:03.850Z,8.97
2018-12-20T10:44:51.876Z,8.91
2018-12-20T10:47:40.330Z,9.89
2018-12-20T10:50:28.125Z,9.19
2018-12-20T10:53:16.043Z,9.08
2018-12-20T10:56:04.901Z,10.03
2018-12-20T11:02:01.081Z,9.43
2018-12-20T11:05:06.564Z,9.41
2018-12-20T11:11:06.007Z,9.39
2018-12-20T11:13:55.047Z,9.37
2018-12-20T11:16:42.635Z,10.28
2018-12-20T11:19:30.135Z,9.46
2018-12-20T11:22:17.666Z,9.19
2018-12-20T11:25:05.192Z,10.07
2018-12-20T11:27:53.069Z,9.30
2018-12-20T11:30:41.050Z,9.17
2018-12-20T11:33:29.578Z,10.05
2018-12-20T11:36:17.163Z,9.41
2018-12-20T11:39:08.492Z,9.36
2018-12-20T11:42:11.135Z,10.38
2018-12-20T11:44:58.694Z,9.78
2018-12-20T11:47:46.372Z,10.71
2018-12-20T11:50:36.066Z,10.03
2018-12-20T11:53:24.756Z,9.86
2018-12-20T11:56:12.073Z,9.73
2018-12-20T12:02:06.219Z,9.85
2018-12-20T12:04:53.435Z,9.87
2018-12-20T12:07:41.529Z,9.97
2018-12-20T12:10:30.118Z,11.01
2018-12-20T12:13:17.564Z,11.36
2018-12-20T12:16:05.391Z,10.71
2018-12-20T12:18:54.170Z,10.63
2018-12-20T12:21:43.529Z,10.54
2018-12-20T12:24:30.607Z,10.44
2018-12-20T12:27:18.871Z,11.26
2018-12-20T12:30:06.006Z,10.38
2018-12-20T12:32:53.694Z,10.07
2018-12-20T12:35:41.113Z,9.96
2018-12-20T12:38:29.953Z,9.80
2018-12-20T12:41:18.295Z,9.66
2018-12-20T12:44:05.551Z,9.58
2018-12-20T12:46:57.696Z,9.52
2018-12-20T12:49:46.547Z,10.34
2018-12-20T12:52:34.097Z,9.65
2018-12-20T12:55:21.507Z,9.51
2018-12-20T12:58:09.127Z,9.40
2018-12-20T13:00:56.881Z,9.32
2018-12-20T13:03:43.988Z,9.26
2018-12-20T13:06:31.700Z,10.03
2018-12-20T13:09:27.449Z,9.41
2018-12-20T13:12:16.938Z,9.25
2018-12-20T13:15:04.953Z,9.15
2018-12-20T13:20:59.829Z,9.32
2018-12-20T13:23:47.173Z,9.20
2018-12-20T13:26:37.219Z,9.13
2018-12-20T13:29:42.053Z,9.06
2018-12-20T13:33:58.675Z,10.03
2018-12-20T13:36:45.757Z,9.35
2018-12-20T13:39:33.755Z,9.19
2018-12-20T13:45:28.495Z,8.98
2018-12-20T13:48:22.194Z,8.93
2018-12-20T13:51:03.214Z,8.88
2018-12-20T13:53:55.132Z,8.81
2018-12-20T13:56:41.315Z,8.75
2018-12-20T13:59:30.724Z,9.53
2018-12-20T14:02:25.779Z,8.94
2018-12-20T14:05:13.199Z,8.84
2018-12-20T14:08:01.484Z,8.77
2018-12-20T14:10:49.636Z,8.74
2018-12-20T14:13:37.883Z,9.51
2018-12-20T14:16:25.576Z,8.92
2018-12-20T14:19:13.907Z,8.80
2018-12-20T14:22:16.674Z,8.71
2018-12-20T14:25:04.013Z,8.62
2018-12-20T14:27:52.478Z,8.58
2018-12-20T14:30:39.472Z,8.55
2018-12-20T14:36:33.267Z,8.46
2018-12-20T14:39:21.677Z,8.44
2018-12-20T14:42:10.679Z,8.41
2018-12-20T14:44:57.994Z,9.16
2018-12-20T14:47:45.930Z,8.61
2018-12-20T14:50:33.419Z,8.47
2018-12-20T14:56:27.375Z,8.31
2018-12-20T14:59:14.756Z,8.27
2018-12-20T15:05:08.211Z,8.15
2018-12-20T15:07:56.277Z,8.12
2018-12-20T15:10:43.603Z,8.07
2018-12-20T15:13:31.183Z,8.80
2018-12-20T15:16:18.953Z,8.24
2018-12-20T15:19:06.968Z,8.10
2018-12-20T15:21:54.713Z,8.01
2018-12-20T15:24:42.277Z,7.93
2018-12-20T15:27:29.902Z,7.86
2018-12-20T15:30:16.948Z,8.54
2018-12-20T15:33:04.055Z,8.73
2018-12-20T15:39:02.388Z,7.88
2018-12-20T15:41:49.819Z,7.81
2018-12-20T15:44:37.537Z,7.74
2018-12-20T15:47:25.270Z,7.68
2018-12-20T15:50:13.515Z,7.63
2018-12-20T15:53:01.115Z,7.61
2018-12-20T15:55:48.848Z,7.60
2018-12-20T15:58:38.655Z,7.61
2018-12-20T16:01:35.985Z,7.61
2018-12-20T16:04:23.155Z,7.63
2018-12-20T16:07:10.502Z,7.62
2018-12-20T16:09:58.293Z,7.64
2018-12-20T16:12:45.419Z,7.63
2018-12-20T16:21:47.612Z,7.61
2018-12-20T16:24:35.235Z,7.61
2018-12-20T16:30:29.381Z,8.42
2018-12-20T16:33:19.355Z,8.68
2018-12-20T16:36:06.528Z,8.11
2018-12-20T16:38:54.648Z,8.00
2018-12-20T16:41:43.422Z,7.93
2018-12-20T16:44:31.755Z,7.86
2018-12-20T16:47:19.715Z,7.80
2018-12-20T16:50:07.180Z,7.74
2018-12-20T16:52:55.195Z,7.69
2018-12-20T16:55:43.180Z,7.64
2018-12-20T16:58:30.761Z,7.60
2018-12-20T17:01:18.573Z,8.34
2018-12-20T17:04:07.863Z,7.81
2018-12-20T17:06:55.383Z,7.71
2018-12-20T17:09:42.848Z,7.64
2018-12-20T17:12:40.209Z,8.39
2018-12-20T17:15:28.259Z,7.85
2018-12-20T17:18:15.954Z,7.73
2018-12-20T17:21:04.015Z,7.67
2018-12-20T17:23:52.487Z,7.59
2018-12-20T17:26:39.626Z,7.53
2018-12-20T17:29:28.296Z,7.42
2018-12-20T17:32:16.329Z,7.33
2018-12-20T17:35:04.311Z,7.24
2018-12-20T17:37:51.394Z,7.16
2018-12-20T17:40:38.924Z,7.11
2018-12-20T17:43:27.092Z,7.09
2018-12-20T17:46:15.296Z,7.05
2018-12-20T17:49:02.786Z,7.06
2018-12-20T17:54:56.973Z,7.08
2018-12-20T17:57:53.938Z,7.10
2018-12-20T18:00:42.606Z,7.10
2018-12-20T18:03:30.098Z,7.11
2018-12-20T18:06:17.723Z,7.11
2018-12-20T18:09:05.106Z,7.85
2018-12-20T18:11:53.218Z,7.34
2018-12-20T18:14:41.168Z,7.24
2018-12-20T18:17:29.005Z,7.17
2018-12-20T18:20:17.055Z,7.13
2018-12-20T18:23:05.145Z,7.11
2018-12-20T18:25:55.335Z,7.10
2018-12-20T18:28:44.145Z,7.09
2018-12-20T18:31:31.844Z,7.09
2018-12-20T18:34:19.635Z,7.08
2018-12-20T18:37:07.753Z,7.08
2018-12-20T18:39:55.418Z,7.84
2018-12-20T18:42:42.948Z,8.08
2018-12-20T18:45:30.959Z,8.25
2018-12-20T18:48:18.988Z,7.64
2018-12-20T18:51:06.437Z,7.50
2018-12-20T18:53:54.371Z,7.42
2018-12-20T18:56:42.786Z,8.17
2018-12-20T18:59:30.590Z,7.63
2018-12-20T19:02:18.086Z,8.27
2018-12-20T19:05:05.766Z,8.45
2018-12-20T19:07:55.363Z,7.83
2018-12-20T19:10:42.640Z,7.68
2018-12-20T19:13:30.047Z,7.60
2018-12-20T19:16:17.994Z,8.32
2018-12-20T19:19:05.594Z,7.74
2018-12-20T19:21:53.638Z,8.38
2018-12-20T19:24:41.485Z,7.78
2018-12-20T19:27:28.992Z,7.63
2018-12-20T19:30:16.436Z,8.32
2018-12-20T19:33:05.559Z,7.71
2018-12-20T19:35:53.782Z,7.54
2018-12-20T19:38:41.877Z,7.42
2018-12-20T19:41:32.128Z,7.33
2018-12-20T19:44:21.016Z,7.27
2018-12-20T19:47:09.543Z,7.20
2018-12-20T19:50:04.755Z,7.12
2018-12-20T19:52:44.987Z,7.02
2018-12-20T19:55:33.805Z,6.95
2018-12-20T19:58:21.306Z,7.64
2018-12-20T20:01:09.145Z,7.10
2018-12-20T20:03:57.181Z,6.96
2018-12-20T20:06:45.965Z,6.90
2018-12-20T20:09:34.142Z,6.86
2018-12-20T20:12:21.661Z,6.82
2018-12-20T20:15:16.385Z,7.55
2018-12-20T20:17:56.619Z,7.12
2018-12-20T20:20:45.780Z,7.05
2018-12-20T20:23:33.918Z,7.03
2018-12-20T20:26:21.589Z,7.75
2018-12-20T20:29:12.780Z,7.25
2018-12-20T20:32:01.815Z,7.13
2018-12-20T20:34:52.437Z,7.08
2018-12-20T20:37:43.149Z,7.06
2018-12-20T20:40:31.947Z,7.06
2018-12-20T20:43:20.242Z,7.07
2018-12-20T20:46:08.177Z,7.08
2018-12-20T20:48:56.524Z,7.10
2018-12-20T20:51:46.028Z,7.83
2018-12-20T20:54:37.826Z,7.37
2018-12-20T20:57:25.919Z,8.04
2018-12-20T21:00:14.351Z,7.53
2018-12-20T21:03:04.384Z,7.41
2018-12-20T21:05:57.546Z,7.37
2018-12-20T21:08:53.547Z,8.10
2018-12-20T21:11:46.452Z,8.34
2018-12-20T21:14:36.791Z,7.74
2018-12-20T21:17:33.156Z,7.60
2018-12-20T21:20:30.496Z,7.53
2018-12-20T21:23:09.562Z,7.48
2018-12-20T21:26:00.301Z,8.17
2018-12-20T21:28:54.004Z,7.67
2018-12-20T21:31:45.909Z,8.32
2018-12-20T21:37:56.469Z,7.62
2018-12-20T21:40:56.980Z,8.35
2018-12-20T21:43:46.887Z,7.77
2018-12-20T21:46:38.471Z,7.64
2018-12-20T21:49:30.345Z,7.55
2018-12-20T21:52:18.017Z,7.49
2018-12-20T21:55:13.780Z,7.40
2018-12-20T21:58:01.851Z,7.34
2018-12-20T22:00:51.486Z,7.29
2018-12-20T22:03:41.604Z,7.23
2018-12-20T22:06:30.525Z,7.18
2018-12-20T22:09:20.280Z,7.13
2018-12-20T22:12:07.822Z,7.10
2018-12-20T22:15:02.475Z,7.07
2018-12-20T22:17:55.217Z,7.04
2018-12-20T22:20:47.294Z,7.77
2018-12-20T22:23:34.263Z,7.25
2018-12-20T22:26:22.446Z,7.13
2018-12-20T22:29:10.743Z,7.06
2018-12-20T22:31:58.246Z,7.02
2018-12-20T22:34:46.326Z,6.99
2018-12-20T22:37:33.622Z,7.71
2018-12-20T22:40:21.354Z,7.24
2018-12-20T22:43:09.187Z,7.14
2018-12-20T22:45:57.607Z,7.85
2018-12-20T22:48:47.518Z,7.33
2018-12-20T22:51:46.125Z,7.23
2018-12-20T22:54:33.656Z,7.19
2018-12-20T22:57:21.892Z,7.16
2018-12-20T23:00:10.073Z,7.13
2018-12-20T23:02:58.034Z,7.13
2018-12-20T23:05:46.425Z,7.87
2018-12-20T23:11:50.182Z,7.25
2018-12-20T23:14:37.951Z,7.19
2018-12-20T23:17:31.099Z,7.14
2018-12-20T23:20:33.272Z,7.13
2018-12-20T23:23:20.691Z,7.11
2018-12-20T23:26:08.223Z,7.09
2018-12-20T23:32:03.429Z,7.05
2018-12-20T23:34:53.999Z,7.02
2018-12-20T23:37:49.439Z,7.01
2018-12-20T23:43:47.424Z,6.98
2018-12-20T23:46:40.451Z,6.99
2018-12-20T23:49:29.137Z,7.78
2018-12-20T23:52:16.923Z,8.03
2018-12-20T23:55:15.112Z,7.46
2018-12-20T23:58:09.867Z,8.13
